createdAt,value
2018-08-30T00:02:09.314Z,61.20
2018-08-30T00:04:37.942Z,61.30
2018-08-30T00:07:06.572Z,61.30
2018-08-30T00:09:35.232Z,61.10
2018-08-30T00:12:03.858Z,60.80
2018-08-30T00:14:32.941Z,61.10
2018-08-30T00:17:01.680Z,61.40
2018-08-30T00:19:30.492Z,61.60
2018-08-30T00:21:59.804Z,62.20
2018-08-30T00:24:28.573Z,62.10
2018-08-30T00:26:57.193Z,62.00
2018-08-30T00:29:25.806Z,62.10
2018-08-30T00:31:54.455Z,62.10
2018-08-30T00:34:23.030Z,62.20
2018-08-30T00:36:51.859Z,62.00
2018-08-30T00:39:20.814Z,62.10
2018-08-30T00:41:50.182Z,61.80
2018-08-30T00:44:18.883Z,61.80
2018-08-30T00:46:47.532Z,62.20
2018-08-30T00:49:16.081Z,62.40
2018-08-30T00:51:44.827Z,62.50
2018-08-30T00:54:13.489Z,62.20
2018-08-30T00:56:42.081Z,62.30
2018-08-30T00:59:10.903Z,62.20
2018-08-30T01:01:39.808Z,62.30
2018-08-30T01:04:09.283Z,62.30
2018-08-30T01:06:38.100Z,62.20
2018-08-30T01:09:07.380Z,61.90
2018-08-30T01:11:36.429Z,61.70
2018-08-30T01:14:05.752Z,61.80
2018-08-30T01:16:34.711Z,62.00
2018-08-30T01:19:03.763Z,62.00
2018-08-30T01:21:32.377Z,61.80
2018-08-30T01:24:00.927Z,62.10
2018-08-30T01:26:29.524Z,61.70
2018-08-30T01:28:58.128Z,62.00
2018-08-30T01:31:26.844Z,61.80
2018-08-30T01:33:55.493Z,62.00
2018-08-30T01:36:24.351Z,61.70
2018-08-30T01:38:53.068Z,61.80
2018-08-30T01:41:21.728Z,61.90
2018-08-30T01:43:50.449Z,62.20
2018-08-30T01:46:20.206Z,62.20
2018-08-30T01:48:49.484Z,62.10
2018-08-30T01:51:18.091Z,62.10
2018-08-30T01:53:46.697Z,61.60
2018-08-30T01:56:15.510Z,61.70
2018-08-30T01:58:44.251Z,62.00
2018-08-30T02:01:12.956Z,61.50
2018-08-30T02:03:41.573Z,61.50
2018-08-30T02:06:10.211Z,61.60
2018-08-30T02:08:38.804Z,61.70
2018-08-30T02:11:07.569Z,61.40
2018-08-30T02:13:36.220Z,61.40
2018-08-30T02:16:04.916Z,61.50
2018-08-30T02:18:33.563Z,61.60
2018-08-30T02:21:02.423Z,61.60
2018-08-30T02:23:31.080Z,62.00
2018-08-30T02:25:59.628Z,61.50
2018-08-30T02:28:28.251Z,61.60
2018-08-30T02:30:56.802Z,61.40
2018-08-30T02:33:25.398Z,60.90
2018-08-30T02:35:53.951Z,61.20
2018-08-30T02:38:22.623Z,61.80
2018-08-30T02:40:51.913Z,61.00
2018-08-30T02:43:20.658Z,61.20
2018-08-30T02:45:49.251Z,61.20
2018-08-30T02:48:18.010Z,61.40
2018-08-30T02:50:46.702Z,61.10
2018-08-30T02:53:15.292Z,61.10
2018-08-30T02:55:43.915Z,61.20
2018-08-30T02:58:13.313Z,61.30
2018-08-30T03:00:41.927Z,61.50
2018-08-30T03:03:10.511Z,61.20
2018-08-30T03:05:40.024Z,61.10
2018-08-30T03:08:08.737Z,61.70
2018-08-30T03:10:37.405Z,61.10
2018-08-30T03:13:06.182Z,60.90
2018-08-30T03:15:35.113Z,60.60
2018-08-30T03:18:04.228Z,61.10
2018-08-30T03:20:32.843Z,60.80
2018-08-30T03:23:01.512Z,60.70
2018-08-30T03:25:31.349Z,60.60
2018-08-30T03:27:59.987Z,60.50
2018-08-30T03:30:28.933Z,60.30
2018-08-30T03:32:57.435Z,60.30
2018-08-30T03:35:26.179Z,61.10
2018-08-30T03:37:55.040Z,60.50
2018-08-30T03:40:23.795Z,60.10
2018-08-30T03:42:52.376Z,60.10
2018-08-30T03:45:20.987Z,59.60
2018-08-30T03:47:50.356Z,59.70
2018-08-30T03:50:19.076Z,59.60
2018-08-30T03:52:47.744Z,59.70
2018-08-30T03:55:16.448Z,59.60
2018-08-30T03:57:44.951Z,59.70
2018-08-30T04:00:14.177Z,59.60
2018-08-30T04:02:42.744Z,59.60
2018-08-30T04:05:11.500Z,59.30
2018-08-30T04:07:40.193Z,58.90
2018-08-30T04:10:09.041Z,59.30
2018-08-30T04:12:37.791Z,59.30
2018-08-30T04:15:06.552Z,59.10
2018-08-30T04:17:36.152Z,58.80
2018-08-30T04:20:05.205Z,59.20
2018-08-30T04:22:34.068Z,59.00
2018-08-30T04:25:02.864Z,58.90
2018-08-30T04:27:31.466Z,59.00
2018-08-30T04:30:01.722Z,59.40
2018-08-30T04:32:30.284Z,59.20
2018-08-30T04:34:58.964Z,59.20
2018-08-30T04:37:27.640Z,59.20
2018-08-30T04:39:56.371Z,59.30
2018-08-30T04:42:25.138Z,59.10
2018-08-30T04:44:54.068Z,59.50
2018-08-30T04:47:22.690Z,59.70
2018-08-30T04:49:51.714Z,59.90
2018-08-30T04:52:20.380Z,60.00
2018-08-30T04:54:49.422Z,60.50
2018-08-30T04:57:18.857Z,60.40
2018-08-30T04:59:47.644Z,60.50
2018-08-30T05:02:16.321Z,60.20
2018-08-30T05:04:44.945Z,60.60
2018-08-30T05:07:13.692Z,60.90
2018-08-30T05:09:42.373Z,60.80
2018-08-30T05:12:11.825Z,60.90
2018-08-30T05:14:41.389Z,61.00
2018-08-30T05:17:09.975Z,61.30
2018-08-30T05:19:38.545Z,61.20
2018-08-30T05:22:08.006Z,61.20
2018-08-30T05:24:36.551Z,61.00
2018-08-30T05:27:05.164Z,61.30
2018-08-30T05:29:33.946Z,61.00
2018-08-30T05:32:02.587Z,60.90
2018-08-30T05:34:31.132Z,61.20
2018-08-30T05:36:59.769Z,61.50
2018-08-30T05:39:29.075Z,61.70
2018-08-30T05:41:57.914Z,61.40
2018-08-30T05:44:26.527Z,61.50
2018-08-30T05:46:55.337Z,61.20
2018-08-30T05:49:23.894Z,61.30
2018-08-30T05:51:52.552Z,61.40
2018-08-30T05:54:21.117Z,61.30
2018-08-30T05:56:49.780Z,61.40
2018-08-30T05:59:18.249Z,61.50
2018-08-30T06:01:46.787Z,61.10
2018-08-30T06:04:15.294Z,61.70
2018-08-30T06:06:44.064Z,61.70
2018-08-30T06:09:12.749Z,61.70
2018-08-30T06:11:41.437Z,61.20
2018-08-30T06:14:11.097Z,61.10
2018-08-30T06:16:40.074Z,61.30
2018-08-30T06:19:08.777Z,61.40
2018-08-30T06:21:38.593Z,61.30
2018-08-30T06:24:07.276Z,61.20
2018-08-30T06:26:36.782Z,61.20
2018-08-30T06:29:06.078Z,61.50
2018-08-30T06:31:34.988Z,61.40
2018-08-30T06:34:04.136Z,61.40
2018-08-30T06:36:32.693Z,61.50
2018-08-30T06:39:01.267Z,61.90
2018-08-30T06:41:30.855Z,61.40
2018-08-30T06:43:59.410Z,61.50
2018-08-30T06:46:28.015Z,61.70
2018-08-30T06:48:56.611Z,61.50
2018-08-30T06:51:25.502Z,61.50
2018-08-30T06:53:54.334Z,61.80
2018-08-30T06:56:23.017Z,61.80
2018-08-30T06:58:51.496Z,61.60
2018-08-30T07:01:20.096Z,61.60
2018-08-30T07:03:48.766Z,61.70
2018-08-30T07:06:17.399Z,61.80
2018-08-30T07:08:46.114Z,61.80
2018-08-30T07:11:14.808Z,61.50
2018-08-30T07:13:44.064Z,61.40
2018-08-30T07:16:14.392Z,61.20
2018-08-30T07:18:42.991Z,61.60
2018-08-30T07:21:11.665Z,61.40
2018-08-30T07:23:41.075Z,61.20
2018-08-30T07:26:09.686Z,61.10
2018-08-30T07:28:38.340Z,61.00
2018-08-30T07:31:06.984Z,61.10
2018-08-30T07:33:35.645Z,60.90
2018-08-30T07:36:04.303Z,61.00
2018-08-30T07:38:32.864Z,61.00
2018-08-30T07:41:01.421Z,60.50
2018-08-30T07:43:29.997Z,60.60
2018-08-30T07:45:58.548Z,60.60
2018-08-30T07:48:27.119Z,60.70
2018-08-30T07:50:56.143Z,60.50
2018-08-30T07:53:24.793Z,60.40
2018-08-30T07:55:53.429Z,60.20
2018-08-30T07:58:22.030Z,60.20
2018-08-30T08:00:50.584Z,59.90
2018-08-30T08:03:20.088Z,59.40
2018-08-30T08:05:48.823Z,59.20
2018-08-30T08:08:17.443Z,59.20
2018-08-30T08:10:46.575Z,59.70
2018-08-30T08:13:15.203Z,58.80
2018-08-30T08:15:43.950Z,58.80
2018-08-30T08:18:12.608Z,58.80
2018-08-30T08:20:42.421Z,59.10
2018-08-30T08:23:11.168Z,58.50
2018-08-30T08:25:39.809Z,58.00
2018-08-30T08:28:08.705Z,58.30
2018-08-30T08:30:37.273Z,58.00
2018-08-30T08:33:06.887Z,57.60
2018-08-30T08:35:35.496Z,57.50
2018-08-30T08:38:04.096Z,57.10
2018-08-30T08:40:34.763Z,57.10
2018-08-30T08:43:03.420Z,57.10
2018-08-30T08:45:32.646Z,57.00
2018-08-30T08:48:01.449Z,56.60
2018-08-30T08:50:30.082Z,56.70
2018-08-30T08:52:58.799Z,57.00
2018-08-30T08:55:27.666Z,56.50
2018-08-30T08:57:56.504Z,56.80
2018-08-30T09:00:25.129Z,56.60
2018-08-30T09:02:53.725Z,56.50
2018-08-30T09:05:22.722Z,56.70
2018-08-30T09:07:51.379Z,55.90
2018-08-30T09:10:19.988Z,55.60
2018-08-30T09:12:48.627Z,55.30
2018-08-30T09:15:17.308Z,55.50
2018-08-30T09:17:46.102Z,55.10
2018-08-30T09:20:15.328Z,55.60
2018-08-30T09:22:43.913Z,55.60
2018-08-30T09:25:12.509Z,55.70
2018-08-30T09:27:41.143Z,54.80
2018-08-30T09:30:09.869Z,54.30
2018-08-30T09:32:38.656Z,53.70
2018-08-30T09:35:07.667Z,53.80
2018-08-30T09:37:36.283Z,53.60
2018-08-30T09:40:04.927Z,53.40
2018-08-30T09:42:33.639Z,52.90
2018-08-30T09:45:02.263Z,52.90
2018-08-30T09:47:31.006Z,52.70
2018-08-30T09:49:59.626Z,52.60
2018-08-30T09:52:28.232Z,52.70
2018-08-30T09:54:56.839Z,52.90
2018-08-30T09:57:25.512Z,52.60
2018-08-30T09:59:54.075Z,51.60
2018-08-30T10:02:28.080Z,51.60
2018-08-30T10:04:56.683Z,51.70
2018-08-30T10:07:25.758Z,51.90
2018-08-30T10:09:54.611Z,51.20
2018-08-30T10:12:23.234Z,50.70
2018-08-30T10:14:52.553Z,50.10
2018-08-30T10:17:21.302Z,49.70
2018-08-30T10:19:50.039Z,49.70
2018-08-30T10:22:18.681Z,49.90
2018-08-30T10:24:48.011Z,49.80
2018-08-30T10:27:16.672Z,49.60
2018-08-30T10:29:45.323Z,49.70
2018-08-30T10:32:14.665Z,48.90
2018-08-30T10:34:43.381Z,49.40
2018-08-30T10:37:12.309Z,49.10
2018-08-30T10:39:41.569Z,48.30
2018-08-30T10:42:10.443Z,48.70
2018-08-30T10:44:39.198Z,48.80
2018-08-30T10:47:07.816Z,48.30
2018-08-30T10:49:36.636Z,48.40
2018-08-30T10:52:05.729Z,48.70
2018-08-30T10:54:34.615Z,49.10
2018-08-30T10:57:03.376Z,49.40
2018-08-30T10:59:32.559Z,49.00
2018-08-30T11:02:01.239Z,48.00
2018-08-30T11:04:31.417Z,47.80
2018-08-30T11:07:00.195Z,47.40
2018-08-30T11:09:29.545Z,46.90
2018-08-30T11:11:58.271Z,46.70
2018-08-30T11:14:27.418Z,46.50
2018-08-30T11:16:56.154Z,46.60
2018-08-30T11:19:25.933Z,46.90
2018-08-30T11:21:54.531Z,47.40
2018-08-30T11:24:23.279Z,47.40
2018-08-30T11:26:51.867Z,47.50
2018-08-30T11:29:20.730Z,47.40
2018-08-30T11:31:49.367Z,48.00
2018-08-30T11:34:18.229Z,48.20
2018-08-30T11:36:48.036Z,48.50
2018-08-30T11:39:16.628Z,48.50
2018-08-30T11:41:46.286Z,47.80
2018-08-30T11:44:14.820Z,47.20
2018-08-30T11:46:43.472Z,47.30
2018-08-30T11:49:12.742Z,47.50
2018-08-30T11:51:41.380Z,47.50
2018-08-30T11:54:10.080Z,47.50
2018-08-30T11:56:38.641Z,47.20
2018-08-30T11:59:07.332Z,47.60
2018-08-30T12:01:36.024Z,47.20
2018-08-30T12:04:04.932Z,47.00
2018-08-30T12:06:33.747Z,46.70
2018-08-30T12:09:02.644Z,46.40
2018-08-30T12:11:31.390Z,46.20
2018-08-30T12:13:59.945Z,46.50
2018-08-30T12:16:28.547Z,46.40
2018-08-30T12:18:57.378Z,46.10
2018-08-30T12:21:26.638Z,45.60
2018-08-30T12:23:55.468Z,46.10
2018-08-30T12:26:24.150Z,45.80
2018-08-30T12:28:53.207Z,44.80
2018-08-30T12:31:22.030Z,43.70
2018-08-30T12:33:51.628Z,43.40
2018-08-30T12:36:20.253Z,42.70
2018-08-30T12:38:49.917Z,42.60
2018-08-30T12:41:18.458Z,42.00
2018-08-30T12:43:48.450Z,42.00
2018-08-30T12:46:17.033Z,41.80
2018-08-30T12:48:45.670Z,40.80
2018-08-30T12:51:15.501Z,40.90
2018-08-30T12:53:43.994Z,41.10
2018-08-30T12:56:12.714Z,41.40
2018-08-30T12:58:41.312Z,41.40
2018-08-30T13:01:10.922Z,41.70
2018-08-30T13:03:39.579Z,41.30
2018-08-30T13:06:08.346Z,40.80
2018-08-30T13:08:36.855Z,41.60
2018-08-30T13:11:05.412Z,41.30
2018-08-30T13:13:34.218Z,40.90
2018-08-30T13:16:03.074Z,40.80
2018-08-30T13:18:32.326Z,40.60
2018-08-30T13:21:01.013Z,40.50
2018-08-30T13:23:29.987Z,40.50
2018-08-30T13:25:58.544Z,40.30
2018-08-30T13:28:28.142Z,39.60
2018-08-30T13:30:56.691Z,39.10
2018-08-30T13:33:25.663Z,39.10
2018-08-30T13:35:54.467Z,39.10
2018-08-30T13:38:23.280Z,39.10
2018-08-30T13:40:51.934Z,39.10
2018-08-30T13:43:21.148Z,39.40
2018-08-30T13:45:49.793Z,39.50
2018-08-30T13:48:18.473Z,39.60
2018-08-30T13:50:46.860Z,38.90
2018-08-30T13:53:16.059Z,38.80
2018-08-30T13:55:44.799Z,38.90
2018-08-30T13:58:13.169Z,39.40
2018-08-30T14:00:42.557Z,40.00
2018-08-30T14:03:11.877Z,39.30
2018-08-30T14:05:41.614Z,39.30
2018-08-30T14:08:13.106Z,39.20
2018-08-30T14:10:41.896Z,39.20
2018-08-30T14:13:10.792Z,39.20
2018-08-30T14:15:39.083Z,39.20
2018-08-30T14:18:07.653Z,39.20
2018-08-30T14:20:37.286Z,40.00
2018-08-30T14:23:06.032Z,40.50
2018-08-30T14:25:34.612Z,41.40
2018-08-30T14:28:03.815Z,40.90
2018-08-30T14:30:32.448Z,40.80
2018-08-30T14:33:01.035Z,40.90
2018-08-30T14:35:29.653Z,40.90
2018-08-30T14:37:58.303Z,41.40
2018-08-30T14:40:27.809Z,41.20
2018-08-30T14:42:56.517Z,41.10
2018-08-30T14:45:25.704Z,41.00
2018-08-30T14:47:54.481Z,40.80
2018-08-30T14:50:23.680Z,40.40
2018-08-30T14:52:52.297Z,39.90
2018-08-30T14:55:20.975Z,39.40
2018-08-30T14:57:49.775Z,39.80
2018-08-30T15:00:18.539Z,39.70
2018-08-30T15:02:47.960Z,39.30
2018-08-30T15:05:16.650Z,39.20
2018-08-30T15:07:45.197Z,39.30
2018-08-30T15:10:13.810Z,39.30
2018-08-30T15:12:42.604Z,39.30
2018-08-30T15:15:11.249Z,39.60
2018-08-30T15:17:40.134Z,39.60
2018-08-30T15:20:08.947Z,39.10
2018-08-30T15:22:37.365Z,38.90
2018-08-30T15:25:06.353Z,38.80
2018-08-30T15:27:35.289Z,39.10
2018-08-30T15:30:04.048Z,39.10
2018-08-30T15:32:32.733Z,38.90
2018-08-30T15:35:01.321Z,39.20
2018-08-30T15:37:29.962Z,39.00
2018-08-30T15:39:58.516Z,39.40
2018-08-30T15:42:27.205Z,38.90
2018-08-30T15:44:55.692Z,38.80
2018-08-30T15:47:24.348Z,38.70
2018-08-30T15:49:52.896Z,39.50
2018-08-30T15:52:21.467Z,39.50
2018-08-30T15:54:50.017Z,39.50
2018-08-30T15:57:18.690Z,39.80
2018-08-30T15:59:47.226Z,38.90
2018-08-30T16:02:15.856Z,38.50
2018-08-30T16:04:44.544Z,38.60
2018-08-30T16:07:13.200Z,38.70
2018-08-30T16:09:41.863Z,38.60
2018-08-30T16:12:10.445Z,38.90
2018-08-30T16:14:39.035Z,38.50
2018-08-30T16:17:07.812Z,38.60
2018-08-30T16:19:36.406Z,38.20
2018-08-30T16:22:05.023Z,38.00
2018-08-30T16:24:33.662Z,38.00
2018-08-30T16:27:02.436Z,38.10
2018-08-30T16:29:31.734Z,37.80
2018-08-30T16:32:00.317Z,38.00
2018-08-30T16:34:29.076Z,38.20
2018-08-30T16:36:57.665Z,38.10
2018-08-30T16:39:26.297Z,38.30
2018-08-30T16:41:54.977Z,38.50
2018-08-30T16:44:23.614Z,38.80
2018-08-30T16:46:52.504Z,38.60
2018-08-30T16:49:21.154Z,38.90
2018-08-30T16:51:49.737Z,39.30
2018-08-30T16:54:18.401Z,39.30
2018-08-30T16:56:47.580Z,39.20
2018-08-30T16:59:16.551Z,39.20
2018-08-30T17:01:45.046Z,39.10
2018-08-30T17:04:13.697Z,39.80
2018-08-30T17:06:42.491Z,39.00
2018-08-30T17:09:11.112Z,39.10
2018-08-30T17:11:40.444Z,39.00
2018-08-30T17:14:09.080Z,39.00
2018-08-30T17:16:37.732Z,39.00
2018-08-30T17:19:17.031Z,39.00
2018-08-30T17:21:45.845Z,39.20
2018-08-30T17:24:14.519Z,40.10
2018-08-30T17:26:43.303Z,40.20
2018-08-30T17:29:11.948Z,41.60
2018-08-30T17:31:40.796Z,41.30
2018-08-30T17:34:09.557Z,41.60
2018-08-30T17:36:39.016Z,41.80
2018-08-30T17:39:08.867Z,42.20
2018-08-30T17:41:37.475Z,43.10
2018-08-30T17:44:07.037Z,42.90
2018-08-30T17:46:35.754Z,43.00
2018-08-30T17:49:04.470Z,43.10
2018-08-30T17:51:33.623Z,43.10
2018-08-30T17:54:03.040Z,43.10
2018-08-30T17:56:31.725Z,43.00
2018-08-30T17:59:00.372Z,43.40
2018-08-30T18:01:29.283Z,43.90
2018-08-30T18:03:57.864Z,43.70
2018-08-30T18:06:26.479Z,43.60
2018-08-30T18:08:55.189Z,43.80
2018-08-30T18:11:24.077Z,44.40
2018-08-30T18:13:53.300Z,44.20
2018-08-30T18:16:22.034Z,44.40
2018-08-30T18:18:51.755Z,44.30
2018-08-30T18:21:20.392Z,44.00
2018-08-30T18:23:48.980Z,44.30
2018-08-30T18:26:17.808Z,44.20
2018-08-30T18:28:46.450Z,44.00
2018-08-30T18:31:15.227Z,43.70
2018-08-30T18:33:43.786Z,43.90
2018-08-30T18:36:12.405Z,44.00
2018-08-30T18:38:41.065Z,43.90
2018-08-30T18:41:09.885Z,43.80
2018-08-30T18:43:39.148Z,43.90
2018-08-30T18:46:07.794Z,44.00
2018-08-30T18:48:36.709Z,43.80
2018-08-30T18:51:05.440Z,44.00
2018-08-30T18:53:34.061Z,43.70
2018-08-30T18:56:03.789Z,43.90
2018-08-30T19:00:01.906Z,43.90
2018-08-30T19:02:31.249Z,43.70
2018-08-30T19:05:00.069Z,44.00
2018-08-30T19:07:28.739Z,44.30
2018-08-30T19:09:57.618Z,44.40
2018-08-30T19:12:26.623Z,44.30
2018-08-30T19:14:55.525Z,44.40
2018-08-30T19:17:29.399Z,44.50
2018-08-30T19:19:58.110Z,44.40
2018-08-30T19:24:58.924Z,44.30
2018-08-30T19:27:27.596Z,44.80
2018-08-30T19:30:31.783Z,44.80
2018-08-30T19:33:00.824Z,44.90
2018-08-30T19:35:34.746Z,45.00
2018-08-30T19:38:03.524Z,45.00
2018-08-30T19:40:37.309Z,45.10
2018-08-30T19:43:06.271Z,45.30
2018-08-30T19:45:35.284Z,45.60
2018-08-30T19:48:05.060Z,45.90
2018-08-30T19:50:34.254Z,45.80
2018-08-30T19:53:03.699Z,45.90
2018-08-30T19:55:32.379Z,45.90
2018-08-30T19:58:01.135Z,46.00
2018-08-30T20:00:29.999Z,46.20
2018-08-30T20:02:58.675Z,46.30
2018-08-30T20:05:27.484Z,46.40
2018-08-30T20:07:56.420Z,46.50
2018-08-30T20:10:25.133Z,46.80
2018-08-30T20:12:53.746Z,46.80
2018-08-30T20:15:22.616Z,46.70
2018-08-30T20:17:51.297Z,46.80
2018-08-30T20:20:19.992Z,46.80
2018-08-30T20:22:48.718Z,46.50
2018-08-30T20:25:17.396Z,46.40
2018-08-30T20:27:46.093Z,46.50
2018-08-30T20:30:14.943Z,46.60
2018-08-30T20:32:43.661Z,46.60
2018-08-30T20:35:12.439Z,46.90
2018-08-30T20:37:41.139Z,46.90
2018-08-30T20:40:09.778Z,46.70
2018-08-30T20:42:38.353Z,46.70
2018-08-30T20:45:07.142Z,47.10
2018-08-30T20:47:35.771Z,47.20
2018-08-30T20:50:04.757Z,47.10
2018-08-30T20:52:33.835Z,47.20
2018-08-30T20:55:02.830Z,47.00
2018-08-30T20:57:31.470Z,47.70
2018-08-30T21:00:00.392Z,47.20
2018-08-30T21:02:29.195Z,47.30
2018-08-30T21:04:58.090Z,47.10
2018-08-30T21:07:26.767Z,47.10
2018-08-30T21:09:55.406Z,47.40
2018-08-30T21:12:24.125Z,47.30
2018-08-30T21:14:53.367Z,47.10
2018-08-30T21:17:22.000Z,47.20
2018-08-30T21:19:50.889Z,47.60
2018-08-30T21:22:19.520Z,47.20
2018-08-30T21:24:48.273Z,47.30
2018-08-30T21:27:17.031Z,47.30
2018-08-30T21:29:45.778Z,47.20
2018-08-30T21:32:14.426Z,47.20
2018-08-30T21:34:43.123Z,47.20
2018-08-30T21:37:12.557Z,47.20
2018-08-30T21:39:41.324Z,46.80
2018-08-30T21:42:09.968Z,46.80
2018-08-30T21:44:38.783Z,46.80
2018-08-30T21:47:07.654Z,46.90
2018-08-30T21:49:36.329Z,46.90
2018-08-30T21:52:05.046Z,47.00
2018-08-30T21:54:33.696Z,46.70
2018-08-30T21:57:02.353Z,46.80
2018-08-30T21:59:30.979Z,47.30
2018-08-30T22:01:59.746Z,47.40
2018-08-30T22:04:28.442Z,47.80
2018-08-30T22:06:57.104Z,47.90
2018-08-30T22:09:25.799Z,48.10
2018-08-30T22:11:54.403Z,48.00
2018-08-30T22:14:23.564Z,47.90
2018-08-30T22:16:52.224Z,47.70
2018-08-30T22:19:21.072Z,47.80
2018-08-30T22:21:49.891Z,47.50
2018-08-30T22:24:18.602Z,47.20
2018-08-30T22:26:47.310Z,47.10
2018-08-30T22:29:16.781Z,47.20
2018-08-30T22:31:45.661Z,47.30
2018-08-30T22:34:14.490Z,47.20
2018-08-30T22:36:43.245Z,47.20
2018-08-30T22:39:11.914Z,47.10
2018-08-30T22:41:40.505Z,47.00
2018-08-30T22:44:09.226Z,47.00
2018-08-30T22:46:38.036Z,47.10
2018-08-30T22:49:06.907Z,47.00
2018-08-30T22:51:36.593Z,47.20
2018-08-30T22:54:05.525Z,47.60
2018-08-30T22:56:34.197Z,47.90
2018-08-30T22:59:03.506Z,48.20
2018-08-30T23:01:32.227Z,48.20
2018-08-30T23:04:00.836Z,48.40
2018-08-30T23:06:29.463Z,48.80
2018-08-30T23:08:58.091Z,48.90
2018-08-30T23:11:26.953Z,49.00
2018-08-30T23:13:55.725Z,49.20
2018-08-30T23:16:24.373Z,49.40
2018-08-30T23:18:53.023Z,49.40
2018-08-30T23:21:21.752Z,49.10
2018-08-30T23:23:50.525Z,49.40
2018-08-30T23:26:19.269Z,49.40
2018-08-30T23:28:48.104Z,49.60
2018-08-30T23:31:16.790Z,49.80
2018-08-30T23:33:45.447Z,49.60
2018-08-30T23:36:14.088Z,49.70
2018-08-30T23:38:42.898Z,49.90
2018-08-30T23:41:11.946Z,49.70
2018-08-30T23:43:40.672Z,49.80
2018-08-30T23:46:09.315Z,49.90
2018-08-30T23:48:38.050Z,49.70
2018-08-30T23:51:06.677Z,49.90
2018-08-30T23:53:35.315Z,50.30
2018-08-30T23:56:04.026Z,50.60
2018-08-30T23:58:43.982Z,50.40
